首页
METAR-TAF:

METAR-TAF

机场 :

St. George Municipal Airport

圣乔治, 犹他州, 美国

纬度: 37-05N, 经度: 113-36W, 海拔: 896米

当前天气观测

该预报发布于41分钟前的23:56 UTC
风速18节,风向西,有时为23节阵风
温度 39°C
湿度 6%
气压 1005 hPa
能見度: 16.1公里
天空无云

METAR: KSGU 152356Z AUTO 26018G23KT 10SM CLR 39/M04 A2967 RMK AO2 PK WND 24027/2314 SLP001 T03941039 10400 20339 56022

时间: 18:37 (00:37 UTC)

预报

该预报发布于1小时和17分钟前的23:20 UTC
预报有效从16日的 00点(UTC)到 16日的 24点(UTC)
风速10节,风向西转西南,有时为17节阵风
能見度: 10公里
天空无云
从 16日的 0200点(UTC)
风速5节,风向多变
能見度: 10公里
天空无云
从 16日的 0700点(UTC)
风速7节,风向东南
能見度: 10公里
天空无云
从 16日的 1600点(UTC)
风速6节,风向西南
能見度: 10公里
天空无云
从 16日的 1900点(UTC)
风速13节,风向西转西南,有时为24节阵风
能見度: 10公里
天空无云

TAF: KSGU 152320Z 1600/1624 24010G17KT P6SM SKC FM160200 VRB05KT P6SM SKC FM160700 13007KT P6SM SKC FM161600 22006KT P6SM SKC FM161900 25013G24KT P6SM SKC

超过4000个机场的气象观测和天气预报(METAR&TAF报告)。

可查询的气象台以黄色和红色小点在地图上表示。

将鼠标移到小点上方,可查看气象台名称。

然后点击查看天气观测和预报。

如需切换地图:点击带黑十字的绿色按钮放大地图;点击带横线的绿色按钮缩小地图;或者点击绿色箭头查看邻近地区的地图。


METAR-TAF: